sensor_id;sensor_type;location;lat;lon;timestamp;pressure;altitude;pressure_sealevel;temperature;humidity
68137;BME280;54939;50.826;9.030;2022-08-19T00:00:17;98254.44;;;26.46;42.10
68137;BME280;54939;50.826;9.030;2022-08-19T00:00:47;98257.19;;;26.46;42.10
68137;BME280;54939;50.826;9.030;2022-08-19T00:01:17;98258.00;;;26.46;42.06
68137;BME280;54939;50.826;9.030;2022-08-19T00:01:49;98255.28;;;26.46;42.05
68137;BME280;54939;50.826;9.030;2022-08-19T00:02:19;98249.53;;;26.48;42.28
68137;BME280;54939;50.826;9.030;2022-08-19T00:02:49;98256.09;;;26.47;42.28
68137;BME280;54939;50.826;9.030;2022-08-19T00:03:19;98261.00;;;26.45;41.93
68137;BME280;54939;50.826;9.030;2022-08-19T00:03:50;98252.81;;;26.45;42.53
68137;BME280;54939;50.826;9.030;2022-08-19T00:04:22;98255.53;;;26.45;42.37
68137;BME280;54939;50.826;9.030;2022-08-19T00:04:53;98255.53;;;26.45;42.40
68137;BME280;54939;50.826;9.030;2022-08-19T00:05:23;98261.84;;;26.45;42.00
68137;BME280;54939;50.826;9.030;2022-08-19T00:05:53;98256.38;;;26.45;42.31
68137;BME280;54939;50.826;9.030;2022-08-19T00:06:24;98248.16;;;26.45;42.29
68137;BME280;54939;50.826;9.030;2022-08-19T00:06:54;98249.25;;;26.44;42.43
68137;BME280;54939;50.826;9.030;2022-08-19T00:07:24;98259.09;;;26.45;42.25
68137;BME280;54939;50.826;9.030;2022-08-19T00:07:55;98257.44;;;26.44;42.10
68137;BME280;54939;50.826;9.030;2022-08-19T00:08:25;98255.53;;;26.45;42.17
68137;BME280;54939;50.826;9.030;2022-08-19T00:08:56;98253.88;;;26.44;42.37
68137;BME280;54939;50.826;9.030;2022-08-19T00:09:26;98256.63;;;26.44;42.07
68137;BME280;54939;50.826;9.030;2022-08-19T00:09:57;98259.34;;;26.44;42.11
68137;BME280;54939;50.826;9.030;2022-08-19T00:10:27;98263.50;;;26.46;42.19
68137;BME280;54939;50.826;9.030;2022-08-19T00:10:57;98256.09;;;26.47;42.19
68137;BME280;54939;50.826;9.030;2022-08-19T00:11:27;98256.94;;;26.47;42.32
68137;BME280;54939;50.826;9.030;2022-08-19T00:11:58;98261.56;;;26.47;41.96
68137;BME280;54939;50.826;9.030;2022-08-19T00:12:28;98265.13;;;26.47;42.31
68137;BME280;54939;50.826;9.030;2022-08-19T00:12:58;98262.66;;;26.46;42.36
68137;BME280;54939;50.826;9.030;2022-08-19T00:13:28;98271.97;;;26.45;42.02
68137;BME280;54939;50.826;9.030;2022-08-19T00:13:59;98263.75;;;26.45;42.27
68137;BME280;54939;50.826;9.030;2022-08-19T00:14:29;98265.66;;;26.44;42.28
68137;BME280;54939;50.826;9.030;2022-08-19T00:15:07;98265.91;;;26.43;42.45
68137;BME280;54939;50.826;9.030;2022-08-19T00:15:42;98267.56;;;26.44;42.39
68137;BME280;54939;50.826;9.030;2022-08-19T00:16:14;98267.56;;;26.44;42.22
68137;BME280;54939;50.826;9.030;2022-08-19T00:16:46;98270.88;;;26.46;42.00
68137;BME280;54939;50.826;9.030;2022-08-19T00:17:17;98269.22;;;26.45;42.09
68137;BME280;54939;50.826;9.030;2022-08-19T00:17:48;98271.13;;;26.44;42.10
68137;BME280;54939;50.826;9.030;2022-08-19T00:18:18;98271.13;;;26.44;42.23
68137;BME280;54939;50.826;9.030;2022-08-19T00:18:48;98271.97;;;26.45;42.35
68137;BME280;54939;50.826;9.030;2022-08-19T00:19:18;98267.56;;;26.44;41.96
68137;BME280;54939;50.826;9.030;2022-08-19T00:19:48;98274.13;;;26.43;42.14
68137;BME280;54939;50.826;9.030;2022-08-19T00:20:20;98265.66;;;26.44;42.01
68137;BME280;54939;50.826;9.030;2022-08-19T00:20:50;98272.22;;;26.43;42.39
68137;BME280;54939;50.826;9.030;2022-08-19T00:21:21;98267.81;;;26.42;42.05
68137;BME280;54939;50.826;9.030;2022-08-19T00:21:52;98267.81;;;26.42;42.18
68137;BME280;54939;50.826;9.030;2022-08-19T00:22:22;98261.53;;;26.42;42.13
68137;BME280;54939;50.826;9.030;2022-08-19T00:22:52;98271.41;;;26.43;42.21
68137;BME280;54939;50.826;9.030;2022-08-19T00:23:22;98264.00;;;26.43;41.96
68137;BME280;54939;50.826;9.030;2022-08-19T00:23:53;98267.00;;;26.42;42.10
68137;BME280;54939;50.826;9.030;2022-08-19T00:24:24;98260.75;;;26.41;42.33
68137;BME280;54939;50.826;9.030;2022-08-19T00:24:54;98252.53;;;26.41;42.42
68137;BME280;54939;50.826;9.030;2022-08-19T00:25:25;98255.78;;;26.43;42.18
68137;BME280;54939;50.826;9.030;2022-08-19T00:25:55;98254.72;;;26.44;42.13
68137;BME280;54939;50.826;9.030;2022-08-19T00:26:26;98251.16;;;26.44;42.34
68137;BME280;54939;50.826;9.030;2022-08-19T00:26:57;98250.31;;;26.43;42.26
68137;BME280;54939;50.826;9.030;2022-08-19T00:27:27;98252.22;;;26.43;42.23
68137;BME280;54939;50.826;9.030;2022-08-19T00:27:57;98240.47;;;26.42;42.04
68137;BME280;54939;50.826;9.030;2022-08-19T00:28:29;98245.94;;;26.42;42.28
68137;BME280;54939;50.826;9.030;2022-08-19T00:29:00;98236.91;;;26.42;42.00
68137;BME280;54939;50.826;9.030;2022-08-19T00:29:30;98235.28;;;26.41;42.32
68137;BME280;54939;50.826;9.030;2022-08-19T00:30:01;98237.19;;;26.40;42.33
68137;BME280;54939;50.826;9.030;2022-08-19T00:30:33;98230.88;;;26.40;42.50
68137;BME280;54939;50.826;9.030;2022-08-19T00:31:04;98238.00;;;26.41;42.24
68137;BME280;54939;50.826;9.030;2022-08-19T00:31:34;98234.44;;;26.40;42.31
68137;BME280;54939;50.826;9.030;2022-08-19T00:32:05;98230.88;;;26.40;42.02
68137;BME280;54939;50.826;9.030;2022-08-19T00:32:36;98227.91;;;26.41;42.00
68137;BME280;54939;50.826;9.030;2022-08-19T00:33:08;98228.97;;;26.40;42.20
68137;BME280;54939;50.826;9.030;2022-08-19T00:33:38;98228.16;;;26.40;42.32
68137;BME280;54939;50.826;9.030;2022-08-19T00:34:08;98221.28;;;26.37;42.20
68137;BME280;54939;50.826;9.030;2022-08-19T00:34:39;98230.88;;;26.40;42.18
68137;BME280;54939;50.826;9.030;2022-08-19T00:35:09;98221.03;;;26.39;42.21
68137;BME280;54939;50.826;9.030;2022-08-19T00:35:39;98225.41;;;26.40;42.15
68137;BME280;54939;50.826;9.030;2022-08-19T00:36:10;98226.50;;;26.39;42.21
68137;BME280;54939;50.826;9.030;2022-08-19T00:36:40;98226.50;;;26.39;42.37
68137;BME280;54939;50.826;9.030;2022-08-19T00:37:11;98233.63;;;26.40;42.11
68137;BME280;54939;50.826;9.030;2022-08-19T00:37:41;98225.41;;;26.40;42.32
68137;BME280;54939;50.826;9.030;2022-08-19T00:38:13;98225.41;;;26.40;42.06
68137;BME280;54939;50.826;9.030;2022-08-19T00:38:43;98228.97;;;26.40;42.19
68137;BME280;54939;50.826;9.030;2022-08-19T00:39:14;98226.50;;;26.39;42.05
68137;BME280;54939;50.826;9.030;2022-08-19T00:39:45;98226.50;;;26.39;42.38
68137;BME280;54939;50.826;9.030;2022-08-19T00:40:16;98231.16;;;26.38;42.10
68137;BME280;54939;50.826;9.030;2022-08-19T00:40:47;98224.03;;;26.37;42.29
68137;BME280;54939;50.826;9.030;2022-08-19T00:41:18;98227.59;;;26.38;42.13
68137;BME280;54939;50.826;9.030;2022-08-19T00:41:50;98227.59;;;26.38;42.23
68137;BME280;54939;50.826;9.030;2022-08-19T00:42:21;98229.25;;;26.39;42.24
68137;BME280;54939;50.826;9.030;2022-08-19T00:42:52;98232.53;;;26.41;42.09
68137;BME280;54939;50.826;9.030;2022-08-19T00:43:26;98227.06;;;26.41;42.06
68137;BME280;54939;50.826;9.030;2022-08-19T00:44:04;98232.81;;;26.39;42.25
68137;BME280;54939;50.826;9.030;2022-08-19T00:44:35;98222.94;;;26.38;42.40
68137;BME280;54939;50.826;9.030;2022-08-19T00:45:10;98226.25;;;26.40;42.01
68137;BME280;54939;50.826;9.030;2022-08-19T00:45:41;98224.59;;;26.39;42.21
68137;BME280;54939;50.826;9.030;2022-08-19T00:46:13;98224.59;;;26.39;42.31
68137;BME280;54939;50.826;9.030;2022-08-19T00:46:44;98227.31;;;26.39;42.37
68137;BME280;54939;50.826;9.030;2022-08-19T00:47:14;98219.94;;;26.40;42.29
68137;BME280;54939;50.826;9.030;2022-08-19T00:47:44;98224.31;;;26.41;42.15
68137;BME280;54939;50.826;9.030;2022-08-19T00:48:15;98219.94;;;26.40;42.20
68137;BME280;54939;50.826;9.030;2022-08-19T00:48:46;98223.50;;;26.40;42.27
68137;BME280;54939;50.826;9.030;2022-08-19T00:49:18;98221.03;;;26.39;42.16
68137;BME280;54939;50.826;9.030;2022-08-19T00:49:50;98220.22;;;26.38;42.40
68137;BME280;54939;50.826;9.030;2022-08-19T00:50:21;98211.16;;;26.38;42.24
68137;BME280;54939;50.826;9.030;2022-08-19T00:50:52;98221.03;;;26.39;42.50
68137;BME280;54939;50.826;9.030;2022-08-19T00:51:26;98220.22;;;26.38;42.44
68137;BME280;54939;50.826;9.030;2022-08-19T00:52:02;98216.94;;;26.41;42.20
68137;BME280;54939;50.826;9.030;2022-08-19T00:52:33;98211.72;;;26.40;42.18
68137;BME280;54939;50.826;9.030;2022-08-19T00:53:04;98212.81;;;26.39;42.05
68137;BME280;54939;50.826;9.030;2022-08-19T00:53:36;98218.03;;;26.40;42.03
68137;BME280;54939;50.826;9.030;2022-08-19T00:54:06;98211.16;;;26.38;42.08
68137;BME280;54939;50.826;9.030;2022-08-19T00:54:36;98209.25;;;26.38;42.08
68137;BME280;54939;50.826;9.030;2022-08-19T00:55:07;98210.59;;;26.36;42.42
68137;BME280;54939;50.826;9.030;2022-08-19T00:55:40;98215.81;;;26.37;42.07
68137;BME280;54939;50.826;9.030;2022-08-19T00:56:12;98206.78;;;26.37;42.33
68137;BME280;54939;50.826;9.030;2022-08-19T00:56:42;98212.25;;;26.37;42.00
68137;BME280;54939;50.826;9.030;2022-08-19T00:57:16;98212.00;;;26.38;42.01
68137;BME280;54939;50.826;9.030;2022-08-19T00:57:54;98208.69;;;26.36;42.31
68137;BME280;54939;50.826;9.030;2022-08-19T00:58:26;98210.66;;;26.41;42.34
68137;BME280;54939;50.826;9.030;2022-08-19T00:58:57;98202.97;;;26.38;42.31
68137;BME280;54939;50.826;9.030;2022-08-19T00:59:28;98212.25;;;26.37;42.39
68137;BME280;54939;50.826;9.030;2022-08-19T00:59:59;98214.47;;;26.40;41.97
68137;BME280;54939;50.826;9.030;2022-08-19T01:00:30;98211.16;;;26.38;42.28
68137;BME280;54939;50.826;9.030;2022-08-19T01:01:01;98209.25;;;26.38;42.17
68137;BME280;54939;50.826;9.030;2022-08-19T01:01:32;98219.13;;;26.39;42.16
68137;BME280;54939;50.826;9.030;2022-08-19T01:02:02;98211.16;;;26.38;42.08
68137;BME280;54939;50.826;9.030;2022-08-19T01:02:32;98213.06;;;26.37;42.41
68137;BME280;54939;50.826;9.030;2022-08-19T01:03:04;98215.81;;;26.37;42.04
68137;BME280;54939;50.826;9.030;2022-08-19T01:03:35;98210.59;;;26.36;42.17
68137;BME280;54939;50.826;9.030;2022-08-19T01:04:06;98212.25;;;26.37;42.46
68137;BME280;54939;50.826;9.030;2022-08-19T01:04:36;98209.53;;;26.37;41.99
68137;BME280;54939;50.826;9.030;2022-08-19T01:05:08;98212.50;;;26.35;42.20
68137;BME280;54939;50.826;9.030;2022-08-19T01:05:40;98217.16;;;26.35;42.13
68137;BME280;54939;50.826;9.030;2022-08-19T01:06:11;98215.25;;;26.35;42.37
68137;BME280;54939;50.826;9.030;2022-08-19T01:06:41;98210.91;;;26.34;42.32
68137;BME280;54939;50.826;9.030;2022-08-19T01:07:12;98219.09;;;26.34;42.23
68137;BME280;54939;50.826;9.030;2022-08-19T01:07:43;98210.06;;;26.34;42.07
68137;BME280;54939;50.826;9.030;2022-08-19T01:08:14;98210.91;;;26.34;42.43
68137;BME280;54939;50.826;9.030;2022-08-19T01:08:45;98208.94;;;26.35;42.32
68137;BME280;54939;50.826;9.030;2022-08-19T01:09:15;98211.69;;;26.35;42.08
68137;BME280;54939;50.826;9.030;2022-08-19T01:09:46;98204.88;;;26.37;41.98
68137;BME280;54939;50.826;9.030;2022-08-19T01:10:17;98211.44;;;26.36;41.99
68137;BME280;54939;50.826;9.030;2022-08-19T01:10:50;98203.22;;;26.36;42.11
68137;BME280;54939;50.826;9.030;2022-08-19T01:11:23;98203.78;;;26.38;42.29
68137;BME280;54939;50.826;9.030;2022-08-19T01:11:53;98212.25;;;26.37;42.31
68137;BME280;54939;50.826;9.030;2022-08-19T01:12:23;98208.94;;;26.35;42.15
68137;BME280;54939;50.826;9.030;2022-08-19T01:12:54;98208.94;;;26.35;42.13
68137;BME280;54939;50.826;9.030;2022-08-19T01:13:25;98210.06;;;26.34;42.04
68137;BME280;54939;50.826;9.030;2022-08-19T01:13:56;98211.97;;;26.33;42.39
68137;BME280;54939;50.826;9.030;2022-08-19T01:14:27;98221.28;;;26.32;42.29
68137;BME280;54939;50.826;9.030;2022-08-19T01:14:57;98211.69;;;26.35;42.21
68137;BME280;54939;50.826;9.030;2022-08-19T01:15:30;98215.53;;;26.34;42.33
68137;BME280;54939;50.826;9.030;2022-08-19T01:16:04;98212.50;;;26.35;42.46
68137;BME280;54939;50.826;9.030;2022-08-19T01:16:35;98215.53;;;26.34;42.14
68137;BME280;54939;50.826;9.030;2022-08-19T01:17:07;98214.44;;;26.35;42.08
68137;BME280;54939;50.826;9.030;2022-08-19T01:17:38;98214.44;;;26.35;42.33
68137;BME280;54939;50.826;9.030;2022-08-19T01:18:10;98212.81;;;26.34;42.13
68137;BME280;54939;50.826;9.030;2022-08-19T01:18:41;98217.16;;;26.35;42.32
68137;BME280;54939;50.826;9.030;2022-08-19T01:19:19;98210.91;;;26.34;42.13
68137;BME280;54939;50.826;9.030;2022-08-19T01:19:52;98213.63;;;26.34;42.12
68137;BME280;54939;50.826;9.030;2022-08-19T01:20:23;98217.44;;;26.33;42.25
68137;BME280;54939;50.826;9.030;2022-08-19T01:20:54;98206.78;;;26.32;42.29
68137;BME280;54939;50.826;9.030;2022-08-19T01:21:31;98207.59;;;26.32;42.12
68137;BME280;54939;50.826;9.030;2022-08-19T01:22:08;98204.84;;;26.32;42.05
68137;BME280;54939;50.826;9.030;2022-08-19T01:22:44;98215.81;;;26.32;42.39
68137;BME280;54939;50.826;9.030;2022-08-19T01:23:16;98209.50;;;26.32;42.47
68137;BME280;54939;50.826;9.030;2022-08-19T01:23:46;98204.84;;;26.32;42.11
68137;BME280;54939;50.826;9.030;2022-08-19T01:24:16;98204.84;;;26.32;42.15
68137;BME280;54939;50.826;9.030;2022-08-19T01:24:46;98199.94;;;26.34;42.35
68137;BME280;54939;50.826;9.030;2022-08-19T01:25:18;98202.69;;;26.34;42.08
68137;BME280;54939;50.826;9.030;2022-08-19T01:25:49;98207.03;;;26.35;42.25
68137;BME280;54939;50.826;9.030;2022-08-19T01:26:21;98200.47;;;26.31;42.15
68137;BME280;54939;50.826;9.030;2022-08-19T01:26:52;98201.28;;;26.32;42.42
68137;BME280;54939;50.826;9.030;2022-08-19T01:27:22;98201.28;;;26.32;42.05
68137;BME280;54939;50.826;9.030;2022-08-19T01:27:53;98195.81;;;26.32;42.42
68137;BME280;54939;50.826;9.030;2022-08-19T01:28:25;98196.09;;;26.30;42.36
68137;BME280;54939;50.826;9.030;2022-08-19T01:28:57;98196.34;;;26.28;42.34
68137;BME280;54939;50.826;9.030;2022-08-19T01:29:27;98196.34;;;26.28;42.50
68137;BME280;54939;50.826;9.030;2022-08-19T01:29:59;98190.88;;;26.28;42.48
68137;BME280;54939;50.826;9.030;2022-08-19T01:30:31;98191.69;;;26.29;42.21
68137;BME280;54939;50.826;9.030;2022-08-19T01:31:02;98191.44;;;26.31;42.40
68137;BME280;54939;50.826;9.030;2022-08-19T01:31:32;98196.09;;;26.30;42.35
68137;BME280;54939;50.826;9.030;2022-08-19T01:32:02;98193.34;;;26.30;42.23
68137;BME280;54939;50.826;9.030;2022-08-19T01:32:33;98190.09;;;26.33;42.40
68137;BME280;54939;50.826;9.030;2022-08-19T01:33:03;98192.81;;;26.33;42.42
68137;BME280;54939;50.826;9.030;2022-08-19T01:33:35;98180.22;;;26.32;41.96
68137;BME280;54939;50.826;9.030;2022-08-19T01:34:06;98191.44;;;26.31;42.28
68137;BME280;54939;50.826;9.030;2022-08-19T01:34:36;98194.44;;;26.29;42.14
68137;BME280;54939;50.826;9.030;2022-08-19T01:35:07;98191.69;;;26.29;42.11
68137;BME280;54939;50.826;9.030;2022-08-19T01:35:38;98192.53;;;26.30;42.38
68137;BME280;54939;50.826;9.030;2022-08-19T01:36:10;98196.09;;;26.30;42.38
68137;BME280;54939;50.826;9.030;2022-08-19T01:36:43;98198.81;;;26.30;42.40
68137;BME280;54939;50.826;9.030;2022-08-19T01:37:16;98195.25;;;26.30;42.26
68137;BME280;54939;50.826;9.030;2022-08-19T01:37:48;98200.72;;;26.30;42.38
68137;BME280;54939;50.826;9.030;2022-08-19T01:38:20;98193.59;;;26.28;42.44
68137;BME280;54939;50.826;9.030;2022-08-19T01:38:50;98196.38;;;26.34;42.34
68137;BME280;54939;50.826;9.030;2022-08-19T01:39:22;98205.69;;;26.33;42.24
68137;BME280;54939;50.826;9.030;2022-08-19T01:39:53;98196.66;;;26.32;42.10
68137;BME280;54939;50.826;9.030;2022-08-19T01:40:24;98201.28;;;26.32;42.34
68137;BME280;54939;50.826;9.030;2022-08-19T01:40:55;98203.19;;;26.31;42.22
68137;BME280;54939;50.826;9.030;2022-08-19T01:41:26;98209.75;;;26.30;42.42
68137;BME280;54939;50.826;9.030;2022-08-19T01:41:56;98202.63;;;26.29;42.39
68137;BME280;54939;50.826;9.030;2022-08-19T01:42:26;98201.81;;;26.28;42.37
68137;BME280;54939;50.826;9.030;2022-08-19T01:42:57;98202.63;;;26.29;42.16
68137;BME280;54939;50.826;9.030;2022-08-19T01:43:27;98200.19;;;26.27;42.09
68137;BME280;54939;50.826;9.030;2022-08-19T01:43:57;98192.78;;;26.28;42.03
68137;BME280;54939;50.826;9.030;2022-08-19T01:44:27;98201.00;;;26.28;42.16
68137;BME280;54939;50.826;9.030;2022-08-19T01:44:57;98199.09;;;26.28;42.32
68137;BME280;54939;50.826;9.030;2022-08-19T01:45:28;98205.13;;;26.31;41.97
68137;BME280;54939;50.826;9.030;2022-08-19T01:45:59;98201.56;;;26.30;42.38
68137;BME280;54939;50.826;9.030;2022-08-19T01:46:30;98205.94;;;26.31;42.17
68137;BME280;54939;50.826;9.030;2022-08-19T01:47:02;98205.69;;;26.33;42.19
68137;BME280;54939;50.826;9.030;2022-08-19T01:47:34;98203.19;;;26.31;41.91
68137;BME280;54939;50.826;9.030;2022-08-19T01:48:05;98208.41;;;26.33;42.30
68137;BME280;54939;50.826;9.030;2022-08-19T01:48:37;98204.84;;;26.32;42.24
68137;BME280;54939;50.826;9.030;2022-08-19T01:49:07;98208.69;;;26.31;42.23
68137;BME280;54939;50.826;9.030;2022-08-19T01:49:37;98202.38;;;26.31;42.27
68137;BME280;54939;50.826;9.030;2022-08-19T01:50:08;98204.56;;;26.28;42.21
68137;BME280;54939;50.826;9.030;2022-08-19T01:50:39;98199.09;;;26.28;42.19
68137;BME280;54939;50.826;9.030;2022-08-19T01:51:10;98204.84;;;26.27;42.37
68137;BME280;54939;50.826;9.030;2022-08-19T01:51:40;98205.09;;;26.25;42.25
68137;BME280;54939;50.826;9.030;2022-08-19T01:52:10;98205.13;;;26.31;42.09
68137;BME280;54939;50.826;9.030;2022-08-19T01:52:41;98205.66;;;26.27;42.27
68137;BME280;54939;50.826;9.030;2022-08-19T01:53:12;98205.13;;;26.31;42.18
68137;BME280;54939;50.826;9.030;2022-08-19T01:53:42;98203.47;;;26.30;42.32
68137;BME280;54939;50.826;9.030;2022-08-19T01:54:13;98203.47;;;26.30;41.92
68137;BME280;54939;50.826;9.030;2022-08-19T01:54:43;98201.00;;;26.28;42.32
68137;BME280;54939;50.826;9.030;2022-08-19T01:55:15;98206.19;;;26.30;42.25
68137;BME280;54939;50.826;9.030;2022-08-19T01:55:45;98206.47;;;26.28;42.37
68137;BME280;54939;50.826;9.030;2022-08-19T01:56:16;98205.13;;;26.31;42.05
68137;BME280;54939;50.826;9.030;2022-08-19T01:56:47;98200.47;;;26.31;42.07
68137;BME280;54939;50.826;9.030;2022-08-19T01:57:17;98202.63;;;26.29;42.09
68137;BME280;54939;50.826;9.030;2022-08-19T01:57:49;98199.38;;;26.32;42.29
68137;BME280;54939;50.826;9.030;2022-08-19T01:58:21;98191.69;;;26.29;41.98
68137;BME280;54939;50.826;9.030;2022-08-19T01:58:53;98200.19;;;26.27;42.34
68137;BME280;54939;50.826;9.030;2022-08-19T01:59:25;98194.97;;;26.26;42.19
68137;BME280;54939;50.826;9.030;2022-08-19T01:59:55;98197.72;;;26.26;42.31
68137;BME280;54939;50.826;9.030;2022-08-19T02:00:27;98198.22;;;26.23;42.40
68137;BME280;54939;50.826;9.030;2022-08-19T02:00:59;98203.69;;;26.23;42.26
68137;BME280;54939;50.826;9.030;2022-08-19T02:01:29;98200.72;;;26.24;42.15
68137;BME280;54939;50.826;9.030;2022-08-19T02:02:04;98201.28;;;26.26;42.27
68137;BME280;54939;50.826;9.030;2022-08-19T02:02:38;98197.72;;;26.26;42.03
68137;BME280;54939;50.826;9.030;2022-08-19T02:03:09;98203.69;;;26.23;42.18
68137;BME280;54939;50.826;9.030;2022-08-19T02:03:41;98205.34;;;26.24;42.25
68137;BME280;54939;50.826;9.030;2022-08-19T02:04:11;98203.69;;;26.23;42.44
68137;BME280;54939;50.826;9.030;2022-08-19T02:04:41;98199.84;;;26.24;42.13
68137;BME280;54939;50.826;9.030;2022-08-19T02:05:12;98199.03;;;26.23;42.12
68137;BME280;54939;50.826;9.030;2022-08-19T02:05:43;98197.94;;;26.19;42.62
68137;BME280;54939;50.826;9.030;2022-08-19T02:06:13;98194.91;;;26.21;42.32
68137;BME280;54939;50.826;9.030;2022-08-19T02:06:44;98201.22;;;26.21;42.54
68137;BME280;54939;50.826;9.030;2022-08-19T02:07:14;98194.66;;;26.22;42.20
68137;BME280;54939;50.826;9.030;2022-08-19T02:07:44;98200.94;;;26.23;42.48
68137;BME280;54939;50.826;9.030;2022-08-19T02:08:14;98205.31;;;26.19;42.47
68137;BME280;54939;50.826;9.030;2022-08-19T02:08:44;98202.31;;;26.20;42.24
68137;BME280;54939;50.826;9.030;2022-08-19T02:09:16;98194.38;;;26.24;42.41
68137;BME280;54939;50.826;9.030;2022-08-19T02:09:46;98191.66;;;26.24;42.43
68137;BME280;54939;50.826;9.030;2022-08-19T02:10:19;98195.72;;;26.21;42.38
68137;BME280;54939;50.826;9.030;2022-08-19T02:10:50;98194.72;;;26.27;42.07
68137;BME280;54939;50.826;9.030;2022-08-19T02:11:22;98192.25;;;26.26;42.38
68137;BME280;54939;50.826;9.030;2022-08-19T02:11:53;98199.63;;;26.25;42.29
68137;BME280;54939;50.826;9.030;2022-08-19T02:12:23;98197.13;;;26.24;42.40
68137;BME280;54939;50.826;9.030;2022-08-19T02:12:53;98202.38;;;26.25;42.33
68137;BME280;54939;50.826;9.030;2022-08-19T02:13:24;98200.72;;;26.24;42.13
68137;BME280;54939;50.826;9.030;2022-08-19T02:13:54;98201.78;;;26.23;42.16
68137;BME280;54939;50.826;9.030;2022-08-19T02:14:24;98199.59;;;26.20;42.27
68137;BME280;54939;50.826;9.030;2022-08-19T02:14:55;98194.38;;;26.19;42.20
68137;BME280;54939;50.826;9.030;2022-08-19T02:15:25;98197.94;;;26.19;42.13
68137;BME280;54939;50.826;9.030;2022-08-19T02:15:55;98203.13;;;26.21;42.42
68137;BME280;54939;50.826;9.030;2022-08-19T02:16:25;98200.94;;;26.18;42.35
68137;BME280;54939;50.826;9.030;2022-08-19T02:16:56;98202.31;;;26.20;42.45
68137;BME280;54939;50.826;9.030;2022-08-19T02:17:27;98202.03;;;26.22;42.34
68137;BME280;54939;50.826;9.030;2022-08-19T02:17:58;98212.97;;;26.22;42.49
68137;BME280;54939;50.826;9.030;2022-08-19T02:18:29;98209.97;;;26.18;42.29
68137;BME280;54939;50.826;9.030;2022-08-19T02:18:59;98209.69;;;26.20;42.47
68137;BME280;54939;50.826;9.030;2022-08-19T02:19:32;98211.63;;;26.19;42.50
68137;BME280;54939;50.826;9.030;2022-08-19T02:20:02;98213.53;;;26.19;42.58
68137;BME280;54939;50.826;9.030;2022-08-19T02:20:33;98214.34;;;26.19;42.45
68137;BME280;54939;50.826;9.030;2022-08-19T02:21:03;98216.78;;;26.21;42.17
68137;BME280;54939;50.826;9.030;2022-08-19T02:21:34;98212.16;;;26.21;42.43
68137;BME280;54939;50.826;9.030;2022-08-19T02:22:04;98216.78;;;26.21;42.40
68137;BME280;54939;50.826;9.030;2022-08-19T02:22:34;98216.25;;;26.19;42.30
68137;BME280;54939;50.826;9.030;2022-08-19T02:23:05;98208.31;;;26.17;42.22
68137;BME280;54939;50.826;9.030;2022-08-19T02:23:36;98211.56;;;26.14;42.44
68137;BME280;54939;50.826;9.030;2022-08-19T02:24:06;98214.88;;;26.16;42.55
68137;BME280;54939;50.826;9.030;2022-08-19T02:24:37;98214.34;;;26.19;42.20
68137;BME280;54939;50.826;9.030;2022-08-19T02:25:09;98208.06;;;26.19;42.25
68137;BME280;54939;50.826;9.030;2022-08-19T02:25:40;98211.63;;;26.19;42.25
68137;BME280;54939;50.826;9.030;2022-08-19T02:26:11;98209.97;;;26.18;42.46
68137;BME280;54939;50.826;9.030;2022-08-19T02:26:42;98213.25;;;26.20;42.15
68137;BME280;54939;50.826;9.030;2022-08-19T02:27:12;98213.53;;;26.19;42.36
68137;BME280;54939;50.826;9.030;2022-08-19T02:27:42;98207.22;;;26.18;42.25
68137;BME280;54939;50.826;9.030;2022-08-19T02:28:13;98216.00;;;26.20;42.26
68137;BME280;54939;50.826;9.030;2022-08-19T02:28:43;98210.53;;;26.20;42.21
68137;BME280;54939;50.826;9.030;2022-08-19T02:29:14;98213.25;;;26.20;42.41
68137;BME280;54939;50.826;9.030;2022-08-19T02:29:45;98205.84;;;26.21;42.15
68137;BME280;54939;50.826;9.030;2022-08-19T02:30:16;98206.41;;;26.23;42.25
68137;BME280;54939;50.826;9.030;2022-08-19T02:30:47;98214.63;;;26.23;42.46
68137;BME280;54939;50.826;9.030;2022-08-19T02:31:19;98210.25;;;26.22;42.42
68137;BME280;54939;50.826;9.030;2022-08-19T02:31:49;98204.22;;;26.20;42.35
68137;BME280;54939;50.826;9.030;2022-08-19T02:32:19;98214.34;;;26.19;42.40
68137;BME280;54939;50.826;9.030;2022-08-19T02:32:50;98210.53;;;26.20;42.19
68137;BME280;54939;50.826;9.030;2022-08-19T02:33:20;98208.06;;;26.19;42.43
68137;BME280;54939;50.826;9.030;2022-08-19T02:33:51;98209.97;;;26.18;42.28
68137;BME280;54939;50.826;9.030;2022-08-19T02:34:22;98208.31;;;26.17;42.48
68137;BME280;54939;50.826;9.030;2022-08-19T02:34:54;98213.25;;;26.20;42.25
68137;BME280;54939;50.826;9.030;2022-08-19T02:35:24;98204.22;;;26.20;42.51
68137;BME280;54939;50.826;9.030;2022-08-19T02:35:55;98214.34;;;26.19;42.59
68137;BME280;54939;50.826;9.030;2022-08-19T02:36:25;98206.69;;;26.21;42.33
68137;BME280;54939;50.826;9.030;2022-08-19T02:36:55;98209.16;;;26.23;42.07
68137;BME280;54939;50.826;9.030;2022-08-19T02:37:26;98201.22;;;26.21;42.32
68137;BME280;54939;50.826;9.030;2022-08-19T02:38:14;98202.31;;;26.20;42.32
68137;BME280;54939;50.826;9.030;2022-08-19T02:38:57;98202.56;;;26.19;42.41
68137;BME280;54939;50.826;9.030;2022-08-19T02:39:27;98205.00;;;26.15;42.29
68137;BME280;54939;50.826;9.030;2022-08-19T02:39:58;98203.66;;;26.18;42.25
68137;BME280;54939;50.826;9.030;2022-08-19T02:40:29;98193.56;;;26.18;42.23
68137;BME280;54939;50.826;9.030;2022-08-19T02:41:00;98197.38;;;26.17;42.42
68137;BME280;54939;50.826;9.030;2022-08-19T02:41:32;98198.19;;;26.18;42.58
68137;BME280;54939;50.826;9.030;2022-08-19T02:42:02;98188.34;;;26.17;42.26
68137;BME280;54939;50.826;9.030;2022-08-19T02:42:32;98190.25;;;26.16;42.51
68137;BME280;54939;50.826;9.030;2022-08-19T02:43:03;98192.97;;;26.16;42.30
68137;BME280;54939;50.826;9.030;2022-08-19T02:43:35;98184.78;;;26.16;42.47
68137;BME280;54939;50.826;9.030;2022-08-19T02:44:06;98193.81;;;26.17;42.53
68137;BME280;54939;50.826;9.030;2022-08-19T02:44:36;98191.06;;;26.17;42.43
68137;BME280;54939;50.826;9.030;2022-08-19T02:45:07;98187.50;;;26.16;42.50